| time (UTC) | temp F | wind direction | speed MPH | gust MPH | rain 1hr in | rain 24hr in | rain mn in | humidity % | barometer mb |
| 20260503013027 | 49 | 202 | 0.0 | 0.0 | 0.00 | 0.01 | 0.01 | 1 | 1009.6 |
| 20260503011524 | 49 | 202 | 0.0 | 1.0 | 0.00 | 0.01 | 0.01 | 1 | 1009.4 |
| 20260503010024 | 50 | 202 | 0.0 | 1.0 | 0.00 | 0.01 | 0.01 | 1 | 1009.3 |
| 20260503004525 | 50 | 177 | 0.0 | 0.0 | 0.00 | 0.01 | 0.01 | 1 | 1009.3 |
| 20260503003021 | 50 | 177 | 0.0 | 1.0 | 0.00 | 0.01 | 0.01 | 1 | 1009.2 |
| 20260503001516 | 50 | 177 | 0.0 | 2.0 | 0.00 | 0.01 | 0.01 | 1 | 1009.1 |
| 20260503000015 | 50 | 177 | 0.0 | 2.0 | 0.00 | 0.01 | 0.01 | 1 | 1009.1 |
| 20260502234508 | 51 | 177 | 0.0 | 1.0 | 0.00 | 0.01 | 0.01 | 1 | 1009.1 |
| 20260502233004 | 51 | 180 | 0.0 | 2.0 | 0.00 | 0.01 | 0.01 | 1 | 1009.2 |
| 20260502231611 | 51 | 180 | 0.0 | 2.0 | 0.00 | 0.01 | 0.01 | 1 | 1009.2 |
| 20260502230055 | 51 | 180 | 0.0 | 2.0 | 0.00 | 0.01 | 0.01 | 1 | 1009.4 |
| 20260502224551 | 51 | 178 | 0.0 | 4.0 | 0.00 | 0.01 | 0.01 | 1 | 1009.2 |
| 20260502223051 | 51 | 227 | 0.0 | 2.0 | 0.00 | 0.01 | 0.01 | 1 | 1009.1 |
| 20260502221555 | 51 | 187 | 0.0 | 2.0 | 0.00 | 0.01 | 0.01 | 1 | 1009.1 |
| 20260502220042 | 52 | 186 | 1.0 | 5.0 | 0.00 | 0.01 | 0.01 | 1 | 1009.1 |
| 20260502214533 | 52 | 152 | 1.0 | 5.0 | 0.00 | 0.01 | 0.01 | 1 | 1009.1 |
| 20260502213029 | 52 | 152 | 2.0 | 7.0 | 0.00 | 0.01 | 0.01 | 1 | 1009.0 |
| 20260502211535 | 52 | 213 | 2.0 | 5.0 | 0.00 | 0.01 | 0.01 | 1 | 1009.1 |
| 20260502210020 | 51 | 166 | 1.0 | 5.0 | 0.00 | 0.01 | 0.01 | 1 | 1009.0 |
| 20260502204516 | 51 | 133 | 4.0 | 10.0 | 0.00 | 0.01 | 0.01 | 1 | 1008.9 |
| 20260502203011 | 52 | 198 | 3.0 | 5.0 | 0.00 | 0.01 | 0.01 | 1 | 1009.0 |
| 20260502201507 | 52 | 218 | 1.0 | 5.0 | 0.00 | 0.01 | 0.01 | 1 | 1009.2 |
| 20260502200003 | 52 | 175 | 1.0 | 5.0 | 0.00 | 0.01 | 0.01 | 1 | 1009.2 |
| 20260502194559 | 52 | 162 | 4.0 | 10.0 | 0.00 | 0.01 | 0.01 | 1 | 1009.4 |
| 20260502193055 | 52 | 205 | 2.0 | 8.0 | 0.00 | 0.01 | 0.01 | 1 | 1009.7 |
| 20260502191549 | 52 | 156 | 2.0 | 6.0 | 0.00 | 0.01 | 0.01 | 1 | 1009.9 |
| 20260502190050 | 52 | 203 | 1.0 | 6.0 | 0.00 | 0.01 | 0.01 | 1 | 1010.0 |
| 20260502184543 | 52 | 188 | 1.0 | 4.0 | 0.00 | 0.01 | 0.01 | 1 | 1010.0 |
| 20260502183041 | 52 | 191 | 1.0 | 3.0 | 0.01 | 0.01 | 0.01 | 1 | 1009.9 |
| 20260502181532 | 51 | 146 | 0.0 | 2.0 | 0.01 | 0.01 | 0.01 | 1 | 1010.1 |
| 20260502163003 | 57 | 142 | 2.0 | 6.0 | 0.00 | 0.00 | 0.00 | 53 | 1010.2 |
| 20260502161559 | 57 | 140 | 3.0 | 6.0 | 0.00 | 0.00 | 0.00 | 53 | 1010.1 |
| 20260502151545 | 54 | 223 | 1.0 | 3.0 | 0.00 | 0.00 | 0.00 | 40 | 1011.0 |
| 20260502123056 | 51 | 211 | 1.0 | 5.0 | 0.00 | 0.00 | 0.00 | 16 | 1011.4 |
| 20260502121552 | 51 | 219 | 2.0 | 4.0 | 0.00 | 0.00 | 0.00 | 18 | 1011.5 |
| 20260502114541 | 49 | 218 | 1.0 | 5.0 | 0.00 | 0.00 | 0.00 | 5 | 1010.9 |
| 20260502113037 | 49 | 224 | 0.0 | 2.0 | 0.00 | 0.00 | 0.00 | 7 | 1010.8 |
| 20260502111531 | 48 | 224 | 2.0 | 4.0 | 0.00 | 0.00 | 0.00 | 7 | 1010.9 |
| 20260502110027 | 48 | 175 | 0.0 | 2.0 | 0.00 | 0.00 | 0.00 | 3 | 1011.0 |
| 20260502104538 | 48 | 175 | 0.0 | 0.0 | 0.00 | 0.00 | 0.00 | 1 | 1010.7 |
| 20260502103025 | 47 | 175 | 0.0 | 1.0 | 0.00 | 0.00 | 0.00 | 1 | 1010.6 |
| 20260502101514 | 47 | 184 | 0.0 | 3.0 | 0.00 | 0.00 | 0.00 | 1 | 1010.6 |
| 20260502070021 | 45 | 244 | 0.0 | 0.0 | 0.00 | 0.00 | 0.00 | 1 | 1010.3 |
| 20260502064514 | 45 | 244 | 0.0 | 0.0 | 0.00 | 0.00 | 0.00 | 1 | 1010.4 |
| 20260502063010 | 45 | 244 | 0.0 | 0.0 | 0.00 | 0.00 | 0.00 | 1 | 1010.5 |
| 20260502061504 | 45 | 244 | 0.0 | 0.0 | 0.00 | 0.00 | 0.00 | 2 | 1010.6 |
| 20260502054556 | 45 | 244 | 0.0 | 0.0 | 0.00 | 0.00 | 0.00 | 12 | 1010.7 |
| 20260502053053 | 45 | 244 | 0.0 | 0.0 | 0.00 | 0.00 | 0.00 | 20 | 1010.8 |
| 20260502051622 | 46 | 244 | 0.0 | 0.0 | 0.00 | 0.00 | 0.00 | 27 | 1010.7 |
| 20260502050047 | 47 | 244 | 0.0 | 0.0 | 0.00 | 0.00 | 0.00 | 36 | 1010.8 |
| 20260502044544 | 47 | 244 | 0.0 | 0.0 | 0.00 | 0.00 | 0.00 | 42 | 1010.8 |
| 20260502043044 | 47 | 244 | 0.0 | 0.0 | 0.00 | 0.00 | 0.00 | 49 | 1010.9 |
| 20260502041541 | 48 | 244 | 0.0 | 0.0 | 0.00 | 0.00 | 0.00 | 52 | 1010.9 |
| 20260502040036 | 48 | 244 | 0.0 | 0.0 | 0.00 | 0.00 | 0.00 | 54 | 1010.9 |
| 20260502034542 | 49 | 244 | 0.0 | 0.0 | 0.00 | 0.00 | 0.00 | 56 | 1010.8 |
| 20260502033040 | 50 | 244 | 0.0 | 0.0 | 0.00 | 0.00 | 0.00 | 55 | 1010.8 |
| 20260502031523 | 50 | 244 | 0.0 | 2.0 | 0.00 | 0.00 | 0.00 | 55 | 1010.7 |
| 20260502030018 | 50 | 244 | 0.0 | 0.0 | 0.00 | 0.00 | 0.00 | 55 | 1010.6 |
| 20260502024515 | 50 | 244 | 0.0 | 2.0 | 0.00 | 0.00 | 0.00 | 55 | 1010.5 |
| 20260502023011 | 48 | 306 | 0.0 | 1.0 | 0.00 | 0.00 | 0.00 | 54 | 1010.6 |
| 20260502021505 | 46 | 307 | 0.0 | 0.0 | 0.00 | 0.00 | 0.00 | 54 | 1010.5 |
| 20260502020002 | 46 | 307 | 0.0 | 0.0 | 0.00 | 0.00 | 0.00 | 56 | 1010.4 |
| 20260502014557 | 47 | 307 | 0.0 | 0.0 | 0.00 | 0.00 | 0.00 | 57 | 1010.2 |